Terminal Aerodrome Forecast
Issued by NWS

Home | Current Version | Previous Version | Text Only | Print | Product List | Glossary On
Versions: 1 2 3 4 5 6 7 8 9 10 11 12 13 14 15 16 17 18
000
FTUS41 KILN 011100
TAFLCK
TAF
KLCK 011136Z 0112/0212 03003KT 3SM BR OVC006
     FM011600 04003KT P6SM BKN015
     FM011700 07005KT P6SM BKN035
     FM012300 08003KT P6SM SKC
     FM021000 14004KT P6SM SCT250=

USA.gov is the U.S. government's official web portal to all federal, state and local government web resources and services.